If you wish to contribute or participate in the discussions about articles you are invited to join SKYbrary as a registered user

 Actions

Gulkana Airport

From SKYbrary Wiki

PAGK
Airport
ICAO: PAGK – IATA: GKN
Summary
Name Gulkana Airport
Region North America
Territory Alaska US.gif
Location , Alaska
Serving Gulkana
Elevation 483.413 m
1,586 ft
1,586 ft483.413 m
Type medium airport
Coordinates 62° 9' 17.60" N, 145° 27' 23.90" W
Runways
Designator Length Width Surface ROPS
15/33 1524 m5,000 ft
30 m98.425 ft
ASPH-G /


METAR
Observation PAGK 150953Z AUTO 00000KT 10SM CLR 07/04 A2987 RMK AO2 SLP117 T00720039 TSNO
Station Gulkana, Gulkana Airport
Date/Time 15 September 2019 09:53:00
Wind direction
Wind speed 00 kts
Lowest cloud amount n/a
Temperature 7.2°C
Dew point 3.9°C
Humidity 79%
QNH hPa
Weather condition n/a